메인 페이지
METAR-TAF:

METAR-TAF

공항 :

방기 음포코 국제공항

방기, 중앙아프리카공화국

위도: 04-24N, 경도: 018-31E, 고도: 365m

현재 날씨관측

예보는 39분 전, 22:00시(UTC)에 발표되었습니다.
북서3kt
온도 20°C
습도 94%
기압 1014 hPa
시정: 8000m
고도 700ft 상공 구름 보통

METAR: FEFF 182200Z 32003KT 8000 SCT007 20/19 Q1014 NOSIG

시각: 23:39 (22:39 UTC)

예보

예보는 5 시간 39분 전, 17:00시(UTC)에 발표되었습니다.
예보 대상 시간: 18일 18시부터 19일 24시까지 (UTC)
여러 방향의 바람 3kt
시정: 8000m
고도 500ft 상공 구름 조금
고도 3300ft 상공 구름 조금, 적란운.
뇌우
전환 중
18일 20시부터 18일 22시까지 (UTC)
고도 1000ft 상공 구름 많음
전환 중
18일 23시부터 18일 01시까지 (UTC)
일시적
19일 02시부터 19일 06시까지 (UTC)
시정: 0800m
고도 300ft 상공 구름 많음
안개
전환 중
19일 08시부터 19일 10시까지 (UTC)
시정 10km 이상
고도 1300ft 상공 구름 보통
전환 중
19일 11시부터 19일 13시까지 (UTC)
고도 2300ft 상공 구름 많음
고도 3300ft 상공 구름 조금, 적란운.

TAF: FEFF 181700Z 1818/1924 VRB03KT 8000 TS FEW005 FEW033CB BECMG 1820/1822 NSW BKN010 BECMG 1823/1801 NSC TEMPO 1902/1906 0800 FG BKN003 BECMG 1908/1910 9999 SCT013 BECMG 1911/1913 BKN023 FEW033CB

4,000개 이상의 공항 관측 자료 및 예보 (METAR 및 TAF 보고).

지도상에서 검색 가능한 기상관측소가 노란 점과 빨간 점으로 표시되어 있습니다.

기상관측소 명을 보려면 표시 위로 마우스를 이동하세요.

날씨 관측과 예보를 보려면 클릭하세요.

지도 변경 : 확대하려면 엑스 표시가 있는 녹색 버튼, 축소하려면 빼기 표시가 있는 녹색 버튼, 다음 페이지의 지도를 보려면 녹색 화살표를 클릭하세요.


METAR-TAF: